createdAt,value
2017-10-19T00:00:04.475Z,93.40
2017-10-19T00:02:31.420Z,93.40
2017-10-19T00:04:58.287Z,93.30
2017-10-19T00:07:25.066Z,93.30
2017-10-19T00:09:51.641Z,93.30
2017-10-19T00:12:18.582Z,93.40
2017-10-19T00:14:45.383Z,93.40
2017-10-19T00:17:12.167Z,93.40
2017-10-19T00:19:38.915Z,93.30
2017-10-19T00:22:05.552Z,93.30
2017-10-19T00:24:32.368Z,93.30
2017-10-19T00:26:59.313Z,93.30
2017-10-19T00:29:25.968Z,93.30
2017-10-19T00:31:52.917Z,93.30
2017-10-19T00:34:19.739Z,93.40
2017-10-19T00:36:46.511Z,93.30
2017-10-19T00:39:13.419Z,93.30
2017-10-19T00:41:40.155Z,93.60
2017-10-19T00:44:07.508Z,93.30
2017-10-19T00:46:34.281Z,93.30
2017-10-19T00:49:00.964Z,93.30
2017-10-19T00:51:27.675Z,93.40
2017-10-19T00:53:54.820Z,93.40
2017-10-19T00:56:22.384Z,93.40
2017-10-19T00:58:49.452Z,93.40
2017-10-19T01:01:16.551Z,93.00
2017-10-19T01:03:43.283Z,93.00
2017-10-19T01:06:10.031Z,93.00
2017-10-19T01:08:36.915Z,93.10
2017-10-19T01:11:03.672Z,93.10
2017-10-19T01:13:31.058Z,93.10
2017-10-19T01:15:57.908Z,93.10
2017-10-19T01:18:24.479Z,93.10
2017-10-19T01:20:51.503Z,93.00
2017-10-19T01:23:18.230Z,93.00
2017-10-19T01:25:44.991Z,93.00
2017-10-19T01:28:11.809Z,93.00
2017-10-19T01:30:38.612Z,92.90
2017-10-19T01:33:05.216Z,92.80
2017-10-19T01:35:32.043Z,92.70
2017-10-19T01:37:58.769Z,92.70
2017-10-19T01:40:25.515Z,92.70
2017-10-19T01:42:53.157Z,92.60
2017-10-19T01:45:20.112Z,92.60
2017-10-19T01:47:47.094Z,92.40
2017-10-19T01:50:13.763Z,92.40
2017-10-19T01:52:40.597Z,92.30
2017-10-19T01:55:07.213Z,92.20
2017-10-19T01:57:34.149Z,92.20
2017-10-19T02:00:00.866Z,92.00
2017-10-19T02:02:27.628Z,92.10
2017-10-19T02:04:54.200Z,92.10
2017-10-19T02:07:21.106Z,92.20
2017-10-19T02:09:47.737Z,92.30
2017-10-19T02:12:14.408Z,92.10
2017-10-19T02:14:41.963Z,92.00
2017-10-19T02:17:08.799Z,91.90
2017-10-19T02:19:35.699Z,91.80
2017-10-19T02:22:02.955Z,91.60
2017-10-19T02:24:29.801Z,91.50
2017-10-19T02:26:56.757Z,91.60
2017-10-19T02:29:24.083Z,91.50
2017-10-19T02:31:51.362Z,91.30
2017-10-19T02:34:18.094Z,91.30
2017-10-19T02:36:44.732Z,91.30
2017-10-19T02:39:11.368Z,91.30
2017-10-19T02:41:37.888Z,91.20
2017-10-19T02:44:04.526Z,91.30
2017-10-19T02:46:31.258Z,90.80
2017-10-19T02:48:58.022Z,90.80
2017-10-19T02:51:24.577Z,90.60
2017-10-19T02:53:51.305Z,90.50
2017-10-19T02:56:18.166Z,90.50
2017-10-19T02:58:44.878Z,90.40
2017-10-19T03:01:12.247Z,90.50
2017-10-19T03:03:38.952Z,90.50
2017-10-19T03:06:05.819Z,90.30
2017-10-19T03:08:32.382Z,90.30
2017-10-19T03:10:59.149Z,90.20
2017-10-19T03:13:25.812Z,90.10
2017-10-19T03:15:52.552Z,90.20
2017-10-19T03:18:19.242Z,90.00
2017-10-19T03:20:46.060Z,90.00
2017-10-19T03:23:13.906Z,89.80
2017-10-19T03:25:41.008Z,89.80
2017-10-19T03:28:07.839Z,89.90
2017-10-19T03:30:35.439Z,89.70
2017-10-19T03:33:02.139Z,89.70
2017-10-19T03:35:29.636Z,88.70
2017-10-19T03:37:56.348Z,88.70
2017-10-19T03:40:23.172Z,88.50
2017-10-19T03:42:50.751Z,88.30
2017-10-19T03:45:19.542Z,88.20
2017-10-19T03:47:46.366Z,88.10
2017-10-19T03:50:15.195Z,87.50
2017-10-19T03:52:41.856Z,87.50
2017-10-19T03:55:08.462Z,87.70
2017-10-19T03:57:35.217Z,87.80
2017-10-19T04:00:02.026Z,88.00
2017-10-19T04:02:29.570Z,87.50
2017-10-19T04:04:56.469Z,87.40
2017-10-19T04:07:23.375Z,87.40
2017-10-19T04:09:50.078Z,87.40
2017-10-19T04:12:17.081Z,87.50
2017-10-19T04:14:43.826Z,87.30
2017-10-19T04:17:10.662Z,87.40
2017-10-19T04:19:38.255Z,87.60
2017-10-19T04:22:05.068Z,87.60
2017-10-19T04:24:32.008Z,87.60
2017-10-19T04:26:58.871Z,87.60
2017-10-19T04:29:25.672Z,87.60
2017-10-19T04:31:52.407Z,87.60
2017-10-19T04:34:19.237Z,87.70
2017-10-19T04:36:46.015Z,87.50
2017-10-19T04:39:12.784Z,87.40
2017-10-19T04:41:39.542Z,87.10
2017-10-19T04:44:06.231Z,87.40
2017-10-19T04:46:32.996Z,87.40
2017-10-19T04:48:59.782Z,87.50
2017-10-19T04:51:26.526Z,87.50
2017-10-19T04:53:53.217Z,87.60
2017-10-19T04:56:19.964Z,87.80
2017-10-19T04:58:46.640Z,88.20
2017-10-19T05:01:14.100Z,88.00
2017-10-19T05:03:41.120Z,88.00
2017-10-19T05:06:07.817Z,88.00
2017-10-19T05:08:34.520Z,88.20
2017-10-19T05:11:01.503Z,87.90
2017-10-19T05:13:28.175Z,87.80
2017-10-19T05:15:54.923Z,87.70
2017-10-19T05:18:21.841Z,87.60
2017-10-19T05:20:49.677Z,87.50
2017-10-19T05:23:16.306Z,87.40
2017-10-19T05:25:43.285Z,87.50
2017-10-19T05:28:10.169Z,87.30
2017-10-19T05:30:36.858Z,87.20
2017-10-19T05:33:03.662Z,87.30
2017-10-19T05:35:30.225Z,87.30
2017-10-19T05:37:56.972Z,87.20
2017-10-19T05:40:24.541Z,86.80
2017-10-19T05:42:52.086Z,87.00
2017-10-19T05:45:18.935Z,87.00
2017-10-19T05:47:45.659Z,86.90
2017-10-19T05:50:12.397Z,86.90
2017-10-19T05:52:39.055Z,87.10
2017-10-19T05:55:05.814Z,87.10
2017-10-19T05:57:32.641Z,87.10
2017-10-19T05:59:59.347Z,86.90
2017-10-19T06:02:26.240Z,86.80
2017-10-19T06:04:53.034Z,86.70
2017-10-19T06:07:19.904Z,86.60
2017-10-19T06:09:46.736Z,86.60
2017-10-19T06:12:13.669Z,86.50
2017-10-19T06:14:40.430Z,86.60
2017-10-19T06:17:07.299Z,86.60
2017-10-19T06:19:34.175Z,86.30
2017-10-19T06:22:01.165Z,86.20
2017-10-19T06:24:28.908Z,85.80
2017-10-19T06:26:56.101Z,85.70
2017-10-19T06:29:22.961Z,85.40
2017-10-19T06:31:49.840Z,85.30
2017-10-19T06:34:16.619Z,85.10
2017-10-19T06:36:43.339Z,85.00
2017-10-19T06:39:10.035Z,84.90
2017-10-19T06:41:36.914Z,84.90
2017-10-19T06:44:03.618Z,84.90
2017-10-19T06:46:30.346Z,85.00
2017-10-19T06:48:57.107Z,84.80
2017-10-19T06:51:23.867Z,84.90
2017-10-19T06:53:50.611Z,85.00
2017-10-19T06:56:17.299Z,85.00
2017-10-19T06:58:43.902Z,85.00
2017-10-19T07:01:10.660Z,84.90
2017-10-19T07:03:37.494Z,84.80
2017-10-19T07:06:04.337Z,84.80
2017-10-19T07:08:31.788Z,84.50
2017-10-19T07:10:58.741Z,84.50
2017-10-19T07:13:25.621Z,84.20
2017-10-19T07:15:53.141Z,83.50
2017-10-19T07:18:19.985Z,83.50
2017-10-19T07:20:46.756Z,83.30
2017-10-19T07:23:13.752Z,83.30
2017-10-19T07:25:40.559Z,83.10
2017-10-19T07:28:07.435Z,82.60
2017-10-19T07:30:34.372Z,82.30
2017-10-19T07:33:01.243Z,81.90
2017-10-19T07:35:28.194Z,81.50
2017-10-19T07:37:55.279Z,81.30
2017-10-19T07:40:22.462Z,80.90
2017-10-19T07:42:49.340Z,80.50
2017-10-19T07:45:16.289Z,80.50
2017-10-19T07:47:43.879Z,80.40
2017-10-19T07:50:10.787Z,80.20
2017-10-19T07:52:38.353Z,80.50
2017-10-19T07:55:05.579Z,80.40
2017-10-19T07:57:35.092Z,79.60
2017-10-19T08:00:02.799Z,79.30
2017-10-19T08:02:29.436Z,78.80
2017-10-19T08:04:56.128Z,78.70
2017-10-19T08:07:23.368Z,78.20
2017-10-19T08:09:50.731Z,77.70
2017-10-19T08:12:17.315Z,77.60
2017-10-19T08:14:44.028Z,77.20
2017-10-19T08:17:11.211Z,76.70
2017-10-19T08:19:37.903Z,76.80
2017-10-19T08:22:04.866Z,76.30
2017-10-19T08:24:31.516Z,76.10
2017-10-19T08:26:58.324Z,76.00
2017-10-19T08:29:27.015Z,75.90
2017-10-19T08:31:53.795Z,75.90
2017-10-19T08:34:21.101Z,75.50
2017-10-19T08:36:48.448Z,74.60
2017-10-19T08:39:16.074Z,74.60
2017-10-19T08:41:46.124Z,73.60
2017-10-19T08:44:18.304Z,73.30
2017-10-19T08:46:46.183Z,72.50
2017-10-19T08:49:13.019Z,71.80
2017-10-19T08:51:40.402Z,71.50
2017-10-19T08:54:07.380Z,71.20
2017-10-19T08:56:35.690Z,70.70
2017-10-19T08:59:03.849Z,69.90
2017-10-19T09:01:30.424Z,69.60
2017-10-19T09:03:58.129Z,69.90
2017-10-19T09:06:26.225Z,70.00
2017-10-19T09:08:53.932Z,70.00
2017-10-19T09:11:21.460Z,70.00
2017-10-19T09:13:48.255Z,69.50
2017-10-19T09:16:15.028Z,69.20
2017-10-19T09:18:41.792Z,69.20
2017-10-19T09:21:08.652Z,69.30
2017-10-19T09:23:36.035Z,69.30
2017-10-19T09:26:03.533Z,70.00
2017-10-19T09:28:30.343Z,69.80
2017-10-19T09:30:58.032Z,70.80
2017-10-19T09:33:25.420Z,71.10
2017-10-19T09:35:52.836Z,70.70
2017-10-19T09:38:21.717Z,69.60
2017-10-19T09:40:49.124Z,69.50
2017-10-19T09:43:16.070Z,69.40
2017-10-19T09:45:43.096Z,69.10
2017-10-19T09:48:12.039Z,69.10
2017-10-19T09:50:38.700Z,69.00
2017-10-19T09:53:05.789Z,69.80
2017-10-19T09:55:32.941Z,68.80
2017-10-19T09:57:59.803Z,68.60
2017-10-19T10:00:31.040Z,68.30
2017-10-19T10:02:59.154Z,68.00
2017-10-19T10:05:25.979Z,68.00
2017-10-19T10:07:52.758Z,67.40
2017-10-19T10:10:19.315Z,66.50
2017-10-19T10:12:46.329Z,66.20
2017-10-19T10:15:13.268Z,65.30
2017-10-19T10:17:39.915Z,64.10
2017-10-19T10:20:06.809Z,63.80
2017-10-19T10:22:35.720Z,62.20
2017-10-19T10:25:02.677Z,61.40
2017-10-19T10:27:31.787Z,60.00
2017-10-19T10:29:58.350Z,58.00
2017-10-19T10:32:25.479Z,56.40
2017-10-19T10:34:52.543Z,53.10
2017-10-19T10:37:19.936Z,49.50
2017-10-19T10:39:47.485Z,49.60
2017-10-19T10:42:15.705Z,49.60
2017-10-19T10:44:43.411Z,48.70
2017-10-19T10:47:10.249Z,47.30
2017-10-19T10:49:37.681Z,45.90
2017-10-19T10:52:06.146Z,45.80
2017-10-19T10:54:33.788Z,45.90
2017-10-19T10:57:00.635Z,45.90
2017-10-19T10:59:28.355Z,48.90
2017-10-19T11:01:55.172Z,48.80
2017-10-19T11:04:21.955Z,50.20
2017-10-19T11:06:48.796Z,51.90
2017-10-19T11:09:15.409Z,53.90
2017-10-19T11:11:42.345Z,55.00
2017-10-19T11:14:09.835Z,56.50
2017-10-19T11:16:37.288Z,57.10
2017-10-19T11:19:04.145Z,57.00
2017-10-19T11:21:30.978Z,57.20
2017-10-19T11:23:57.511Z,57.60
2017-10-19T11:26:24.508Z,58.10
2017-10-19T11:28:51.198Z,58.30
2017-10-19T11:31:18.451Z,58.30
2017-10-19T11:33:45.564Z,58.30
2017-10-19T11:36:12.398Z,58.50
2017-10-19T11:38:39.285Z,58.60
2017-10-19T11:41:06.124Z,58.30
2017-10-19T11:43:32.764Z,58.00
2017-10-19T11:45:59.683Z,57.80
2017-10-19T11:48:27.083Z,58.30
2017-10-19T11:50:53.838Z,58.10
2017-10-19T11:53:20.648Z,57.80
2017-10-19T11:55:47.453Z,57.60
2017-10-19T11:58:14.909Z,55.40
2017-10-19T12:00:41.652Z,55.40
2017-10-19T12:03:08.459Z,54.90
2017-10-19T12:05:35.465Z,54.80
2017-10-19T12:08:02.224Z,55.50
2017-10-19T12:10:29.265Z,54.50
2017-10-19T12:12:55.963Z,54.50
2017-10-19T12:15:22.919Z,54.90
2017-10-19T12:17:50.392Z,55.40
2017-10-19T12:20:17.456Z,55.40
2017-10-19T12:22:44.123Z,54.80
2017-10-19T12:25:10.902Z,54.40
2017-10-19T12:27:37.774Z,53.80
2017-10-19T12:30:04.541Z,53.60
2017-10-19T12:32:31.353Z,53.80
2017-10-19T12:34:58.187Z,54.30
2017-10-19T12:37:25.007Z,54.50
2017-10-19T12:39:51.940Z,54.30
2017-10-19T12:42:18.729Z,54.20
2017-10-19T12:44:45.465Z,53.90
2017-10-19T12:47:12.517Z,54.10
2017-10-19T12:49:39.226Z,54.40
2017-10-19T12:52:06.611Z,54.50
2017-10-19T12:54:34.275Z,54.60
2017-10-19T12:57:01.084Z,54.40
2017-10-19T12:59:27.860Z,54.50
2017-10-19T13:01:54.689Z,54.20
2017-10-19T13:04:21.584Z,54.60
2017-10-19T13:06:48.286Z,55.20
2017-10-19T13:09:15.041Z,55.50
2017-10-19T13:11:41.767Z,55.20
2017-10-19T13:14:08.480Z,55.20
2017-10-19T13:16:35.248Z,54.90
2017-10-19T13:19:02.203Z,54.20
2017-10-19T13:21:28.916Z,54.10
2017-10-19T13:23:55.672Z,53.60
2017-10-19T13:26:22.329Z,52.90
2017-10-19T13:28:49.065Z,52.50
2017-10-19T13:31:15.895Z,52.80
2017-10-19T13:33:42.689Z,52.60
2017-10-19T13:36:09.461Z,52.60
2017-10-19T13:38:36.127Z,52.80
2017-10-19T13:41:02.893Z,53.20
2017-10-19T13:43:29.662Z,52.80
2017-10-19T13:45:56.376Z,53.00
2017-10-19T13:48:23.014Z,53.90
2017-10-19T13:50:49.727Z,53.20
2017-10-19T13:53:16.671Z,54.10
2017-10-19T13:55:43.447Z,54.30
2017-10-19T13:58:10.314Z,54.90
2017-10-19T14:00:36.956Z,55.80
2017-10-19T14:03:04.583Z,57.70
2017-10-19T14:05:32.198Z,59.00
2017-10-19T14:07:59.361Z,59.00
2017-10-19T14:10:26.081Z,59.70
2017-10-19T14:12:52.903Z,60.20
2017-10-19T14:15:20.672Z,60.40
2017-10-19T14:17:47.531Z,60.50
2017-10-19T14:20:14.653Z,60.80
2017-10-19T14:22:41.667Z,60.70
2017-10-19T14:25:10.220Z,60.70
2017-10-19T14:27:37.146Z,60.60
2017-10-19T14:30:07.462Z,60.80
2017-10-19T14:32:34.218Z,60.20
2017-10-19T14:35:01.082Z,59.40
2017-10-19T14:37:28.482Z,58.40
2017-10-19T14:39:55.160Z,58.40
2017-10-19T14:42:21.874Z,58.70
2017-10-19T14:44:48.657Z,59.00
2017-10-19T14:47:15.581Z,59.50
2017-10-19T14:49:42.487Z,59.80
2017-10-19T14:52:10.583Z,60.50
2017-10-19T14:54:37.535Z,61.40
2017-10-19T14:57:04.274Z,62.00
2017-10-19T14:59:31.861Z,62.40
2017-10-19T15:01:59.298Z,63.10
2017-10-19T15:04:26.038Z,64.10
2017-10-19T15:06:53.253Z,64.50
2017-10-19T15:09:20.053Z,64.70
2017-10-19T15:11:46.872Z,65.10
2017-10-19T15:14:13.540Z,65.60
2017-10-19T15:16:40.330Z,66.40
2017-10-19T15:19:08.181Z,68.30
2017-10-19T15:21:35.332Z,68.10
2017-10-19T15:24:04.715Z,69.00
2017-10-19T15:26:31.936Z,70.10
2017-10-19T15:28:59.100Z,70.80
2017-10-19T15:31:25.812Z,71.70
2017-10-19T15:33:52.676Z,72.70
2017-10-19T15:36:20.349Z,74.90
2017-10-19T15:38:47.117Z,74.80
2017-10-19T15:41:14.744Z,76.80
2017-10-19T15:43:41.435Z,76.80
2017-10-19T15:46:08.489Z,77.70
2017-10-19T15:48:35.387Z,78.60
2017-10-19T15:51:12.404Z,79.60
2017-10-19T15:53:39.244Z,80.30
2017-10-19T15:56:06.052Z,80.90
2017-10-19T15:58:32.708Z,81.60
2017-10-19T16:01:00.042Z,82.00
2017-10-19T16:03:26.653Z,82.80
2017-10-19T16:05:53.349Z,83.50
2017-10-19T16:08:20.285Z,83.70
2017-10-19T16:10:47.844Z,84.50
2017-10-19T16:13:14.487Z,84.40
2017-10-19T16:15:41.972Z,85.10
2017-10-19T16:18:09.040Z,85.00
2017-10-19T16:20:35.820Z,85.60
2017-10-19T16:23:02.710Z,86.00
2017-10-19T16:25:29.535Z,86.40
2017-10-19T16:27:57.755Z,86.50
2017-10-19T16:30:26.926Z,86.70
2017-10-19T16:41:24.682Z,88.00
2017-10-19T16:43:52.196Z,88.20
2017-10-19T16:46:19.658Z,88.10
2017-10-19T16:48:49.520Z,88.10
2017-10-19T16:51:19.799Z,88.30
2017-10-19T16:53:53.475Z,88.60
2017-10-19T16:56:26.771Z,88.90
2017-10-19T16:59:03.786Z,88.90
2017-10-19T17:01:33.887Z,89.00
2017-10-19T17:12:21.451Z,89.90
2017-10-19T17:14:53.296Z,89.80
2017-10-19T17:17:23.060Z,89.80
2017-10-19T17:19:51.345Z,90.10
2017-10-19T17:22:18.030Z,90.00
2017-10-19T17:24:45.877Z,90.00
2017-10-19T17:27:13.720Z,90.00
2017-10-19T17:29:42.138Z,90.10
2017-10-19T17:32:10.895Z,90.00
2017-10-19T17:34:40.140Z,90.10
2017-10-19T17:37:07.864Z,90.10
2017-10-19T17:39:34.729Z,90.00
2017-10-19T17:42:01.866Z,90.10
2017-10-19T17:44:28.642Z,90.10
2017-10-19T17:46:55.582Z,90.00
2017-10-19T17:49:22.319Z,90.10
2017-10-19T17:51:49.373Z,90.20
2017-10-19T17:54:16.002Z,90.20
2017-10-19T17:56:42.960Z,90.20
2017-10-19T17:59:09.991Z,90.10
2017-10-19T18:01:36.839Z,90.10
2017-10-19T18:04:04.764Z,90.10
2017-10-19T18:06:32.164Z,90.10
2017-10-19T18:08:59.085Z,90.20
2017-10-19T18:11:28.827Z,90.10
2017-10-19T18:13:57.503Z,90.10
2017-10-19T18:16:26.301Z,90.10
2017-10-19T18:18:53.753Z,90.10
2017-10-19T18:21:20.555Z,90.10
2017-10-19T18:23:47.969Z,90.00
2017-10-19T18:26:16.797Z,90.00
2017-10-19T18:28:44.282Z,90.10
2017-10-19T18:31:11.182Z,90.00
2017-10-19T18:33:38.182Z,90.00
2017-10-19T18:36:05.034Z,90.10
2017-10-19T18:38:31.863Z,90.10
2017-10-19T18:40:59.505Z,90.10
2017-10-19T18:43:27.572Z,90.20
2017-10-19T18:45:54.615Z,90.20
2017-10-19T18:48:21.405Z,90.20
2017-10-19T18:50:48.184Z,90.20
2017-10-19T18:53:16.639Z,90.20
2017-10-19T18:55:43.532Z,90.20
2017-10-19T18:58:11.327Z,90.00
2017-10-19T19:00:38.601Z,90.00
2017-10-19T19:03:06.073Z,89.90
2017-10-19T19:05:32.870Z,89.70
2017-10-19T19:07:59.587Z,89.70
2017-10-19T19:10:27.057Z,89.50
2017-10-19T19:12:54.055Z,89.50
2017-10-19T19:15:21.242Z,89.40
2017-10-19T19:17:48.095Z,89.10
2017-10-19T19:20:14.929Z,88.90
2017-10-19T19:22:43.185Z,88.90
2017-10-19T19:25:10.904Z,88.60
2017-10-19T19:27:38.668Z,88.60
2017-10-19T19:30:05.582Z,88.70
2017-10-19T19:32:34.835Z,88.70
2017-10-19T19:35:02.212Z,88.80
2017-10-19T19:37:29.313Z,88.80
2017-10-19T19:39:56.524Z,89.00
2017-10-19T19:42:23.577Z,89.20
2017-10-19T19:44:51.431Z,89.10
2017-10-19T19:47:18.865Z,89.30
2017-10-19T19:49:50.298Z,89.60
2017-10-19T19:52:23.515Z,89.40
2017-10-19T19:54:54.135Z,90.00
2017-10-19T19:57:21.526Z,89.50
2017-10-19T19:59:49.176Z,89.40
2017-10-19T20:02:16.800Z,89.70
2017-10-19T20:04:44.692Z,89.70
2017-10-19T20:07:11.841Z,90.00
2017-10-19T20:09:39.811Z,89.60
2017-10-19T20:12:06.700Z,89.80
2017-10-19T20:14:35.303Z,89.80
2017-10-19T20:17:02.521Z,90.00
2017-10-19T20:19:29.487Z,90.00
2017-10-19T20:21:56.468Z,90.00
2017-10-19T20:24:23.578Z,89.90
2017-10-19T20:26:50.280Z,89.90
2017-10-19T20:29:17.224Z,90.00
2017-10-19T20:31:44.874Z,90.00
2017-10-19T20:34:11.861Z,90.00
2017-10-19T20:36:39.098Z,90.10
2017-10-19T20:39:06.015Z,90.10
2017-10-19T20:41:32.825Z,90.10
2017-10-19T20:43:59.684Z,90.10
2017-10-19T20:46:26.905Z,90.10
2017-10-19T20:48:54.139Z,90.10
2017-10-19T20:51:22.134Z,90.10
2017-10-19T20:53:50.562Z,90.10
2017-10-19T20:56:17.712Z,90.10
2017-10-19T20:58:44.651Z,90.10
2017-10-19T21:01:11.932Z,90.10
2017-10-19T21:03:38.784Z,90.10
2017-10-19T21:06:05.806Z,90.10
2017-10-19T21:08:32.476Z,90.10
2017-10-19T21:11:00.561Z,90.10
2017-10-19T21:13:29.328Z,90.20
2017-10-19T21:15:57.410Z,90.20
2017-10-19T21:18:26.872Z,90.10
2017-10-19T21:20:53.866Z,90.10
2017-10-19T21:23:21.732Z,90.20
2017-10-19T21:25:48.653Z,90.20
2017-10-19T21:28:15.877Z,90.30
2017-10-19T21:30:42.781Z,90.20
2017-10-19T21:33:10.750Z,90.20
2017-10-19T21:35:38.195Z,90.30
2017-10-19T21:38:04.992Z,90.30
2017-10-19T21:40:32.551Z,90.40
2017-10-19T21:42:59.389Z,90.30
2017-10-19T21:45:25.982Z,90.30
2017-10-19T21:47:53.631Z,90.40
2017-10-19T21:50:20.407Z,90.40
2017-10-19T21:52:47.738Z,90.30
2017-10-19T21:55:14.574Z,90.40
2017-10-19T21:57:41.137Z,90.50
2017-10-19T22:00:08.162Z,90.40
2017-10-19T22:02:35.736Z,90.40
2017-10-19T22:05:03.466Z,90.40
2017-10-19T22:07:30.600Z,90.40
2017-10-19T22:09:58.149Z,90.40
2017-10-19T22:12:24.859Z,90.40
2017-10-19T22:14:51.582Z,90.40
2017-10-19T22:17:18.325Z,90.40
2017-10-19T22:19:45.040Z,90.30
2017-10-19T22:22:12.022Z,90.40
2017-10-19T22:24:39.563Z,90.60
2017-10-19T22:27:06.206Z,90.60
2017-10-19T22:29:32.991Z,90.50
2017-10-19T22:31:59.624Z,90.60
2017-10-19T22:34:26.296Z,90.60
2017-10-19T22:36:53.211Z,90.70
2017-10-19T22:39:20.843Z,90.70
2017-10-19T22:41:47.727Z,90.70
2017-10-19T22:44:15.281Z,90.70
2017-10-19T22:46:41.841Z,90.70
2017-10-19T22:49:08.612Z,90.80
2017-10-19T22:51:35.332Z,90.90
2017-10-19T22:54:02.897Z,91.00
2017-10-19T22:56:29.627Z,90.90
2017-10-19T22:58:57.254Z,91.10
2017-10-19T23:01:23.763Z,91.10
2017-10-19T23:03:50.458Z,91.10
2017-10-19T23:06:17.109Z,91.30
2017-10-19T23:08:43.735Z,91.30
2017-10-19T23:11:10.492Z,91.30
2017-10-19T23:13:38.089Z,91.60
2017-10-19T23:16:05.595Z,91.30
2017-10-19T23:18:32.258Z,91.30
2017-10-19T23:20:58.907Z,91.30
2017-10-19T23:23:25.679Z,91.20
2017-10-19T23:25:52.492Z,91.30
2017-10-19T23:28:19.302Z,91.20
2017-10-19T23:30:45.968Z,91.20
2017-10-19T23:33:13.434Z,91.30
2017-10-19T23:35:40.420Z,91.30
2017-10-19T23:38:07.186Z,91.40
2017-10-19T23:40:33.931Z,91.40
2017-10-19T23:43:00.724Z,91.40
2017-10-19T23:45:27.358Z,91.50
2017-10-19T23:47:54.012Z,91.40
2017-10-19T23:50:20.661Z,91.40
2017-10-19T23:52:47.472Z,91.40
2017-10-19T23:55:14.071Z,91.40
2017-10-19T23:57:40.704Z,91.40
